createdAt,value
2018-03-04T00:01:15.183Z,15.85
2018-03-04T00:03:47.356Z,15.86
2018-03-04T00:06:13.571Z,15.88
2018-03-04T00:08:39.755Z,15.89
2018-03-04T00:11:06.025Z,15.87
2018-03-04T00:13:32.198Z,15.87
2018-03-04T00:15:58.606Z,15.87
2018-03-04T00:18:24.881Z,15.89
2018-03-04T00:20:51.122Z,15.89
2018-03-04T00:23:17.320Z,15.86
2018-03-04T00:25:43.520Z,15.86
2018-03-04T00:28:09.713Z,15.86
2018-03-04T00:30:35.923Z,15.86
2018-03-04T00:33:02.130Z,15.83
2018-03-04T00:35:28.292Z,15.83
2018-03-04T00:37:54.556Z,15.82
2018-03-04T00:40:20.978Z,15.81
2018-03-04T00:42:47.220Z,15.80
2018-03-04T00:45:13.418Z,15.78
2018-03-04T00:47:39.604Z,15.79
2018-03-04T00:50:05.885Z,15.79
2018-03-04T00:52:32.081Z,15.80
2018-03-04T00:54:58.259Z,15.81
2018-03-04T00:57:24.483Z,15.81
2018-03-04T00:59:50.654Z,15.81
2018-03-04T01:02:16.881Z,15.81
2018-03-04T01:04:43.067Z,15.79
2018-03-04T01:07:09.306Z,15.78
2018-03-04T01:09:35.525Z,15.59
2018-03-04T01:12:01.916Z,15.77
2018-03-04T01:14:28.105Z,15.81
2018-03-04T01:16:54.339Z,15.80
2018-03-04T01:19:20.496Z,15.79
2018-03-04T01:21:46.719Z,15.78
2018-03-04T01:24:12.904Z,15.77
2018-03-04T01:26:39.113Z,15.76
2018-03-04T01:29:05.319Z,15.79
2018-03-04T01:31:31.488Z,15.74
2018-03-04T01:33:57.708Z,15.73
2018-03-04T01:36:24.126Z,15.77
2018-03-04T01:38:50.316Z,15.76
2018-03-04T01:41:16.509Z,15.74
2018-03-04T01:43:42.726Z,15.73
2018-03-04T01:46:08.976Z,15.73
2018-03-04T01:48:35.158Z,15.70
2018-03-04T01:51:01.423Z,15.71
2018-03-04T01:53:27.651Z,15.72
2018-03-04T01:55:53.850Z,15.71
2018-03-04T01:58:20.382Z,15.70
2018-03-04T02:00:46.563Z,15.73
2018-03-04T02:03:12.769Z,15.72
2018-03-04T02:05:38.973Z,15.70
2018-03-04T02:08:05.153Z,15.68
2018-03-04T02:10:31.328Z,15.70
2018-03-04T02:12:57.509Z,15.72
2018-03-04T02:15:23.772Z,15.75
2018-03-04T02:17:49.946Z,15.73
2018-03-04T02:20:16.140Z,15.71
2018-03-04T02:22:42.337Z,15.69
2018-03-04T02:25:08.753Z,15.70
2018-03-04T02:27:34.973Z,15.75
2018-03-04T02:30:01.150Z,15.78
2018-03-04T02:32:27.586Z,15.80
2018-03-04T02:34:53.780Z,15.77
2018-03-04T02:37:19.971Z,15.77
2018-03-04T02:39:46.197Z,15.76
2018-03-04T02:42:12.377Z,15.75
2018-03-04T02:44:38.917Z,15.74
2018-03-04T02:47:05.083Z,15.74
2018-03-04T02:49:31.279Z,15.76
2018-03-04T02:51:57.504Z,15.75
2018-03-04T02:54:23.741Z,15.75
2018-03-04T02:56:49.995Z,15.76
2018-03-04T02:59:16.168Z,15.75
2018-03-04T03:01:42.335Z,15.71
2018-03-04T03:04:08.534Z,15.71
2018-03-04T03:06:34.774Z,15.71
2018-03-04T03:09:00.957Z,15.74
2018-03-04T03:11:27.384Z,15.72
2018-03-04T03:13:53.566Z,15.71
2018-03-04T03:16:19.783Z,15.73
2018-03-04T03:18:45.986Z,15.73
2018-03-04T03:21:12.178Z,15.75
2018-03-04T03:23:38.355Z,15.75
2018-03-04T03:26:04.543Z,15.77
2018-03-04T03:28:30.760Z,15.77
2018-03-04T03:30:56.960Z,15.75
2018-03-04T03:33:23.520Z,15.72
2018-03-04T03:35:49.768Z,15.70
2018-03-04T03:38:16.240Z,15.70
2018-03-04T03:40:42.428Z,15.68
2018-03-04T03:43:08.899Z,15.68
2018-03-04T03:45:35.095Z,15.71
2018-03-04T03:48:01.321Z,15.71
2018-03-04T03:50:27.481Z,15.70
2018-03-04T03:52:53.677Z,15.70
2018-03-04T03:55:19.906Z,15.67
2018-03-04T03:57:46.074Z,15.70
2018-03-04T04:00:12.342Z,15.72
2018-03-04T04:02:38.827Z,15.70
2018-03-04T04:05:05.015Z,15.69
2018-03-04T04:07:31.190Z,15.67
2018-03-04T04:09:57.395Z,15.70
2018-03-04T04:12:23.622Z,15.70
2018-03-04T04:14:50.012Z,15.67
2018-03-04T04:17:16.195Z,15.66
2018-03-04T04:19:42.400Z,15.68
2018-03-04T04:22:08.615Z,15.67
2018-03-04T04:24:34.792Z,15.66
2018-03-04T04:27:01.000Z,15.66
2018-03-04T04:29:27.409Z,15.69
2018-03-04T04:31:53.608Z,15.63
2018-03-04T04:34:19.771Z,15.61
2018-03-04T04:36:46.238Z,15.60
2018-03-04T04:39:12.416Z,15.61
2018-03-04T04:41:38.565Z,15.59
2018-03-04T04:44:04.836Z,15.59
2018-03-04T04:46:31.028Z,15.62
2018-03-04T04:48:57.194Z,15.65
2018-03-04T04:51:23.382Z,15.64
2018-03-04T04:53:49.657Z,15.62
2018-03-04T04:56:15.857Z,15.62
2018-03-04T04:58:42.039Z,15.64
2018-03-04T05:01:08.238Z,15.63
2018-03-04T05:03:34.636Z,15.60
2018-03-04T05:06:00.857Z,15.63
2018-03-04T05:08:27.257Z,15.62
2018-03-04T05:10:53.459Z,15.59
2018-03-04T05:13:19.629Z,15.58
2018-03-04T05:15:45.838Z,15.58
2018-03-04T05:18:12.000Z,15.58
2018-03-04T05:20:38.183Z,15.56
2018-03-04T05:23:04.391Z,15.56
2018-03-04T05:25:30.548Z,15.57
2018-03-04T05:27:56.789Z,15.57
2018-03-04T05:30:22.945Z,15.56
2018-03-04T05:32:49.123Z,15.57
2018-03-04T05:35:15.603Z,15.59
2018-03-04T05:37:41.888Z,15.59
2018-03-04T05:40:08.078Z,15.59
2018-03-04T05:42:34.281Z,15.66
2018-03-04T05:45:00.525Z,15.67
2018-03-04T05:47:27.060Z,15.69
2018-03-04T05:49:53.248Z,15.74
2018-03-04T05:52:19.453Z,15.74
2018-03-04T05:54:45.734Z,15.75
2018-03-04T05:57:11.930Z,15.76
2018-03-04T05:59:38.123Z,15.75
2018-03-04T06:02:04.345Z,15.75
2018-03-04T06:04:30.547Z,15.74
2018-03-04T06:06:57.716Z,15.75
2018-03-04T06:09:23.927Z,15.75
2018-03-04T06:11:50.158Z,15.75
2018-03-04T06:14:16.366Z,15.70
2018-03-04T06:16:42.553Z,15.70
2018-03-04T06:19:08.764Z,15.71
2018-03-04T06:21:34.965Z,15.69
2018-03-04T06:24:01.169Z,15.70
2018-03-04T06:26:27.362Z,15.67
2018-03-04T06:28:53.598Z,15.68
2018-03-04T06:31:19.808Z,15.67
2018-03-04T06:33:46.307Z,15.70
2018-03-04T06:36:12.536Z,15.71
2018-03-04T06:38:38.726Z,15.70
2018-03-04T06:41:04.932Z,15.68
2018-03-04T06:43:31.428Z,15.73
2018-03-04T06:45:57.875Z,15.75
2018-03-04T06:48:24.106Z,15.80
2018-03-04T06:50:50.350Z,15.80
2018-03-04T06:53:16.553Z,15.82
2018-03-04T06:55:43.084Z,15.83
2018-03-04T06:58:09.283Z,15.82
2018-03-04T07:00:35.432Z,15.83
2018-03-04T07:03:01.669Z,15.83
2018-03-04T07:05:27.907Z,15.84
2018-03-04T07:07:54.097Z,15.82
2018-03-04T07:10:20.324Z,15.84
2018-03-04T07:12:46.522Z,15.85
2018-03-04T07:15:12.746Z,15.85
2018-03-04T07:17:38.961Z,15.86
2018-03-04T07:20:05.277Z,15.85
2018-03-04T07:22:31.477Z,15.85
2018-03-04T07:24:57.682Z,15.84
2018-03-04T07:27:23.884Z,15.86
2018-03-04T07:29:50.164Z,15.89
2018-03-04T07:32:16.375Z,15.89
2018-03-04T07:34:42.572Z,15.88
2018-03-04T07:37:08.789Z,15.87
2018-03-04T07:39:35.101Z,15.87
2018-03-04T07:42:01.343Z,15.88
2018-03-04T07:44:27.558Z,15.91
2018-03-04T07:46:53.856Z,15.90
2018-03-04T07:51:52.179Z,15.93
2018-03-04T07:54:18.701Z,15.93
2018-03-04T07:56:44.929Z,15.95
2018-03-04T07:59:11.120Z,15.96
2018-03-04T08:01:37.590Z,15.98
2018-03-04T08:04:03.807Z,15.99
2018-03-04T08:06:29.978Z,16.01
2018-03-04T08:08:56.227Z,16.01
2018-03-04T08:11:22.485Z,16.00
2018-03-04T08:13:48.934Z,16.03
2018-03-04T08:16:15.155Z,16.03
2018-03-04T08:18:41.362Z,16.01
2018-03-04T08:21:07.554Z,15.98
2018-03-04T08:23:33.783Z,15.95
2018-03-04T08:26:12.250Z,15.93
2018-03-04T08:28:38.517Z,15.94
2018-03-04T08:31:04.729Z,15.93
2018-03-04T08:33:30.895Z,15.92
2018-03-04T08:35:57.100Z,15.90
2018-03-04T08:38:23.294Z,15.90
2018-03-04T08:40:49.475Z,15.93
2018-03-04T08:43:15.662Z,15.95
2018-03-04T08:45:41.866Z,15.99
2018-03-04T08:48:08.076Z,16.04
2018-03-04T08:50:34.550Z,16.07
2018-03-04T08:53:00.811Z,16.08
2018-03-04T08:55:27.298Z,16.08
2018-03-04T08:57:53.517Z,16.10
2018-03-04T09:00:19.728Z,16.09
2018-03-04T09:02:45.928Z,16.10
2018-03-04T09:05:12.091Z,16.11
2018-03-04T09:07:38.368Z,16.09
2018-03-04T09:10:04.775Z,16.08
2018-03-04T09:12:30.977Z,16.08
2018-03-04T09:14:57.221Z,16.07
2018-03-04T09:17:23.421Z,16.06
2018-03-04T09:19:49.917Z,16.04
2018-03-04T09:22:16.128Z,16.07
2018-03-04T09:24:42.321Z,16.11
2018-03-04T09:27:08.889Z,16.15
2018-03-04T09:29:35.116Z,16.23
2018-03-04T09:32:01.652Z,16.29
2018-03-04T09:34:27.838Z,16.31
2018-03-04T09:36:54.033Z,16.33
2018-03-04T09:39:20.218Z,16.34
2018-03-04T09:41:46.468Z,16.35
2018-03-04T09:44:12.694Z,16.33
2018-03-04T09:46:38.874Z,16.35
2018-03-04T09:49:05.092Z,16.38
2018-03-04T09:51:31.322Z,16.39
2018-03-04T09:53:57.593Z,16.39
2018-03-04T09:56:23.793Z,16.45
2018-03-04T09:58:50.261Z,16.48
2018-03-04T10:01:16.480Z,16.50
2018-03-04T10:03:42.763Z,16.55
2018-03-04T10:08:40.807Z,16.51
2018-03-04T10:11:07.044Z,16.48
2018-03-04T10:13:33.267Z,16.42
2018-03-04T10:15:59.662Z,16.37
2018-03-04T10:18:26.126Z,16.39
2018-03-04T10:20:52.301Z,16.38
2018-03-04T10:23:18.791Z,16.39
2018-03-04T10:25:45.029Z,16.40
2018-03-04T10:28:11.256Z,16.41
2018-03-04T10:30:37.492Z,16.40
2018-03-04T10:33:03.677Z,16.44
2018-03-04T10:35:30.246Z,16.44
2018-03-04T10:37:56.495Z,16.47
2018-03-04T10:40:22.727Z,16.50
2018-03-04T10:42:48.928Z,16.54
2018-03-04T10:45:15.191Z,16.55
2018-03-04T10:47:41.397Z,16.58
2018-03-04T10:50:07.594Z,16.60
2018-03-04T10:52:33.832Z,16.63
2018-03-04T10:55:00.062Z,16.63
2018-03-04T10:57:26.314Z,16.65
2018-03-04T10:59:52.536Z,16.66
2018-03-04T11:02:22.699Z,16.68
2018-03-04T11:04:48.992Z,16.71
2018-03-04T11:07:15.224Z,16.73
2018-03-04T11:09:41.458Z,16.73
2018-03-04T11:12:07.707Z,16.76
2018-03-04T11:14:33.886Z,16.79
2018-03-04T11:17:00.134Z,16.84
2018-03-04T11:19:26.359Z,16.89
2018-03-04T11:21:52.571Z,16.95
2018-03-04T11:24:18.804Z,17.02
2018-03-04T11:26:45.049Z,17.07
2018-03-04T11:29:11.307Z,17.09
2018-03-04T11:31:37.525Z,17.09
2018-03-04T11:34:03.756Z,17.07
2018-03-04T11:36:29.925Z,17.08
2018-03-04T11:38:56.371Z,17.10
2018-03-04T11:41:22.560Z,17.12
2018-03-04T11:43:48.823Z,17.17
2018-03-04T11:46:15.092Z,17.20
2018-03-04T11:48:41.283Z,17.20
2018-03-04T11:51:07.477Z,17.26
2018-03-04T11:53:33.711Z,17.26
2018-03-04T11:55:59.974Z,17.25
2018-03-04T11:58:26.448Z,17.26
2018-03-04T12:00:52.706Z,17.32
2018-03-04T12:03:18.884Z,17.37
2018-03-04T12:05:45.069Z,17.45
2018-03-04T12:08:11.330Z,17.52
2018-03-04T12:10:37.851Z,17.51
2018-03-04T12:13:10.052Z,17.48
2018-03-04T12:15:36.657Z,17.48
2018-03-04T12:18:02.806Z,17.49
2018-03-04T12:20:29.294Z,17.42
2018-03-04T12:22:55.544Z,17.42
2018-03-04T12:25:21.739Z,17.48
2018-03-04T12:27:47.950Z,17.54
2018-03-04T12:30:14.158Z,17.59
2018-03-04T12:32:40.375Z,17.62
2018-03-04T12:35:06.560Z,17.64
2018-03-04T12:37:33.013Z,17.67
2018-03-04T12:39:59.446Z,17.69
2018-03-04T12:42:25.642Z,17.72
2018-03-04T12:44:51.803Z,17.77
2018-03-04T12:47:18.024Z,17.76
2018-03-04T12:49:44.300Z,17.75
2018-03-04T12:52:10.487Z,17.72
2018-03-04T12:54:36.788Z,17.80
2018-03-04T12:57:03.314Z,17.86
2018-03-04T12:59:29.557Z,17.89
2018-03-04T13:01:55.761Z,17.90
2018-03-04T13:04:21.979Z,17.84
2018-03-04T13:06:48.220Z,17.88
2018-03-04T13:09:14.412Z,17.90
2018-03-04T13:11:40.675Z,17.88
2018-03-04T13:14:07.123Z,17.87
2018-03-04T13:16:33.687Z,17.88
2018-03-04T13:18:59.870Z,17.90
2018-03-04T13:21:26.358Z,17.86
2018-03-04T13:23:52.551Z,17.83
2018-03-04T13:26:19.018Z,17.83
2018-03-04T13:28:45.273Z,17.76
2018-03-04T13:31:11.782Z,17.72
2018-03-04T13:33:38.429Z,17.65
2018-03-04T13:36:04.633Z,17.59
2018-03-04T13:38:30.792Z,17.61
2018-03-04T13:40:57.239Z,17.63
2018-03-04T13:43:23.670Z,17.65
2018-03-04T13:45:50.068Z,17.64
2018-03-04T13:48:16.256Z,17.60
2018-03-04T13:50:42.500Z,17.56
2018-03-04T13:53:08.904Z,17.52
2018-03-04T13:55:35.060Z,17.49
2018-03-04T13:58:01.319Z,17.45
2018-03-04T14:00:27.579Z,17.45
2018-03-04T14:02:53.763Z,17.43
2018-03-04T14:05:19.954Z,17.45
2018-03-04T14:07:46.207Z,17.44
2018-03-04T14:10:12.463Z,17.47
2018-03-04T14:12:38.608Z,17.47
2018-03-04T14:15:04.996Z,17.47
2018-03-04T14:17:31.232Z,17.46
2018-03-04T14:19:57.411Z,17.42
2018-03-04T14:22:23.900Z,17.40
2018-03-04T14:24:50.111Z,17.42
2018-03-04T14:27:16.319Z,17.41
2018-03-04T14:29:42.524Z,17.38
2018-03-04T14:32:08.710Z,17.36
2018-03-04T14:34:34.932Z,17.35
2018-03-04T14:37:01.097Z,17.30
2018-03-04T14:39:27.349Z,17.21
2018-03-04T14:41:53.608Z,17.30
2018-03-04T14:44:19.866Z,17.29
2018-03-04T14:46:46.054Z,17.31
2018-03-04T14:49:12.243Z,17.30
2018-03-04T14:51:38.442Z,17.25
2018-03-04T14:54:04.665Z,17.23
2018-03-04T14:56:30.844Z,17.20
2018-03-04T14:58:57.040Z,17.16
2018-03-04T15:01:23.246Z,17.16
2018-03-04T15:03:49.501Z,17.17
2018-03-04T15:06:15.728Z,17.17
2018-03-04T15:08:41.910Z,17.17
2018-03-04T15:11:08.158Z,17.16
2018-03-04T15:13:34.364Z,17.17
2018-03-04T15:16:00.557Z,17.18
2018-03-04T15:18:27.043Z,17.18
2018-03-04T15:20:53.200Z,17.14
2018-03-04T15:23:19.625Z,17.11
2018-03-04T15:25:46.049Z,17.09
2018-03-04T15:28:12.568Z,17.07
2018-03-04T15:30:39.007Z,17.04
2018-03-04T15:33:05.224Z,17.01
2018-03-04T15:35:31.404Z,17.00
2018-03-04T15:37:57.894Z,16.96
2018-03-04T15:40:24.161Z,16.93
2018-03-04T15:42:50.348Z,16.91
2018-03-04T15:45:16.524Z,16.90
2018-03-04T15:47:42.741Z,16.88
2018-03-04T15:50:08.948Z,16.86
2018-03-04T15:52:35.087Z,16.86
2018-03-04T15:55:01.269Z,16.85
2018-03-04T15:57:27.534Z,16.84
2018-03-04T15:59:53.818Z,16.83
2018-03-04T16:02:20.055Z,16.83
2018-03-04T16:04:46.246Z,16.82
2018-03-04T16:07:12.476Z,16.80
2018-03-04T16:09:38.674Z,16.82
2018-03-04T16:12:04.824Z,16.81
2018-03-04T16:14:31.008Z,16.83
2018-03-04T16:16:57.231Z,16.83
2018-03-04T16:19:23.667Z,16.83
2018-03-04T16:21:49.836Z,16.82
2018-03-04T16:24:16.023Z,16.82
2018-03-04T16:26:42.557Z,16.82
2018-03-04T16:29:08.763Z,16.81
2018-03-04T16:31:34.964Z,16.79
2018-03-04T16:34:01.219Z,16.77
2018-03-04T16:36:27.410Z,16.76
2018-03-04T16:38:53.588Z,16.75
2018-03-04T16:41:19.903Z,16.76
2018-03-04T16:43:46.073Z,16.74
2018-03-04T16:46:12.277Z,16.72
2018-03-04T16:48:38.486Z,16.70
2018-03-04T16:51:04.770Z,16.72
2018-03-04T16:53:31.270Z,16.71
2018-03-04T16:55:57.455Z,16.71
2018-03-04T16:58:23.723Z,16.69
2018-03-04T17:00:51.189Z,16.67
2018-03-04T17:03:17.371Z,16.65
2018-03-04T17:05:43.538Z,16.67
2018-03-04T17:08:10.077Z,16.69
2018-03-04T17:10:36.327Z,16.70
2018-03-04T17:13:02.532Z,16.68
2018-03-04T17:15:28.741Z,16.69
2018-03-04T17:17:54.911Z,16.69
2018-03-04T17:20:21.131Z,16.68
2018-03-04T17:22:47.392Z,16.70
2018-03-04T17:25:13.574Z,16.70
2018-03-04T17:27:39.736Z,16.67
2018-03-04T17:30:05.961Z,16.68
2018-03-04T17:32:32.271Z,16.72
2018-03-04T17:34:58.467Z,16.67
2018-03-04T17:37:24.717Z,16.70
2018-03-04T17:39:50.905Z,16.70
2018-03-04T17:42:17.056Z,16.73
2018-03-04T17:44:43.253Z,16.73
2018-03-04T17:47:09.496Z,16.72
2018-03-04T17:49:35.695Z,16.70
2018-03-04T17:52:01.902Z,16.67
2018-03-04T17:54:28.413Z,16.65
2018-03-04T17:56:54.564Z,16.67
2018-03-04T17:59:20.748Z,16.66
2018-03-04T18:01:47.008Z,16.65
2018-03-04T18:04:13.201Z,16.66
2018-03-04T18:06:39.482Z,16.67
2018-03-04T18:09:05.847Z,16.66
2018-03-04T18:11:32.015Z,16.64
2018-03-04T18:13:58.234Z,16.64
2018-03-04T18:16:24.440Z,16.63
2018-03-04T18:18:50.660Z,16.62
2018-03-04T18:21:17.121Z,16.61
2018-03-04T18:23:43.327Z,16.63
2018-03-04T18:26:09.493Z,16.62
2018-03-04T18:28:35.685Z,16.62
2018-03-04T18:31:01.876Z,16.63
2018-03-04T18:33:28.371Z,16.63
2018-03-04T18:35:54.554Z,16.64
2018-03-04T18:38:20.754Z,16.66
2018-03-04T18:40:46.976Z,16.66
2018-03-04T18:43:13.212Z,16.66
2018-03-04T18:45:39.369Z,16.65
2018-03-04T18:48:05.537Z,16.67
2018-03-04T18:50:32.066Z,16.70
2018-03-04T18:52:58.467Z,16.67
2018-03-04T18:55:24.612Z,16.68
2018-03-04T18:57:50.861Z,16.67
2018-03-04T19:00:17.045Z,16.70
2018-03-04T19:02:43.275Z,16.68
2018-03-04T19:05:09.527Z,16.67
2018-03-04T19:07:36.072Z,16.69
2018-03-04T19:10:02.329Z,16.67
2018-03-04T19:12:31.703Z,16.66
2018-03-04T19:14:57.938Z,16.63
2018-03-04T19:17:24.122Z,16.64
2018-03-04T19:19:50.342Z,16.63
2018-03-04T19:22:16.531Z,16.61
2018-03-04T19:24:42.817Z,16.62
2018-03-04T19:27:09.056Z,16.62
2018-03-04T19:29:35.244Z,16.63
2018-03-04T19:32:01.406Z,16.63
2018-03-04T19:34:27.608Z,16.63
2018-03-04T19:36:53.778Z,16.63
2018-03-04T19:39:19.970Z,16.64
2018-03-04T19:41:46.142Z,16.65
2018-03-04T19:44:12.361Z,16.66
2018-03-04T19:46:38.902Z,16.67
2018-03-04T19:49:05.078Z,16.67
2018-03-04T19:51:31.307Z,16.67
2018-03-04T19:53:57.522Z,16.66
2018-03-04T19:56:23.740Z,16.69
2018-03-04T19:58:49.938Z,16.68
2018-03-04T20:01:16.145Z,16.69
2018-03-04T20:03:42.348Z,16.67
2018-03-04T20:06:15.554Z,16.68
2018-03-04T20:08:41.772Z,16.67
2018-03-04T20:11:08.247Z,16.66
2018-03-04T20:13:34.388Z,16.67
2018-03-04T20:16:00.904Z,16.64
2018-03-04T20:18:27.116Z,16.62
2018-03-04T20:20:53.307Z,16.59
2018-03-04T20:23:19.507Z,16.59
2018-03-04T20:25:45.659Z,16.57
2018-03-04T20:28:11.846Z,16.58
2018-03-04T20:30:38.019Z,16.55
2018-03-04T20:33:04.214Z,16.54
2018-03-04T20:35:30.387Z,16.54
2018-03-04T20:37:56.861Z,16.55
2018-03-04T20:40:23.027Z,16.54
2018-03-04T20:42:49.516Z,16.54
2018-03-04T20:45:15.679Z,16.53
2018-03-04T20:47:41.848Z,16.53
2018-03-04T20:50:08.044Z,16.55
2018-03-04T20:52:34.242Z,16.55
2018-03-04T20:55:00.453Z,16.52
2018-03-04T20:57:26.618Z,16.55
2018-03-04T20:59:53.115Z,16.56
2018-03-04T21:02:19.410Z,16.55
2018-03-04T21:04:45.627Z,16.56
2018-03-04T21:07:11.851Z,16.56
2018-03-04T21:09:37.995Z,16.57
2018-03-04T21:12:04.209Z,16.57
2018-03-04T21:14:36.578Z,16.55
2018-03-04T21:17:02.767Z,16.55
2018-03-04T21:19:28.949Z,16.56
2018-03-04T21:21:55.111Z,16.57
2018-03-04T21:24:21.333Z,16.58
2018-03-04T21:26:47.507Z,16.55
2018-03-04T21:29:13.799Z,16.56
2018-03-04T21:31:40.045Z,16.53
2018-03-04T21:34:06.284Z,16.52
2018-03-04T21:36:32.439Z,16.52
2018-03-04T21:38:58.602Z,16.50
2018-03-04T21:41:24.798Z,16.49
2018-03-04T21:43:51.264Z,16.49
2018-03-04T21:46:17.454Z,16.49
2018-03-04T21:48:43.636Z,16.47
2018-03-04T21:51:10.156Z,16.47
2018-03-04T21:53:36.354Z,16.45
2018-03-04T21:56:02.530Z,16.45
2018-03-04T21:58:28.760Z,16.46
2018-03-04T22:00:55.269Z,16.49
2018-03-04T22:03:21.482Z,16.51
2018-03-04T22:05:47.694Z,16.53
2018-03-04T22:08:13.923Z,16.52
2018-03-04T22:10:46.922Z,16.54
2018-03-04T22:13:13.481Z,16.54
2018-03-04T22:15:39.636Z,16.52
2018-03-04T22:18:05.853Z,16.51
2018-03-04T22:20:32.032Z,16.51
2018-03-04T22:22:58.490Z,16.52
2018-03-04T22:25:24.922Z,16.55
2018-03-04T22:27:51.094Z,16.55
2018-03-04T22:30:17.273Z,16.55
2018-03-04T22:32:43.420Z,16.56
2018-03-04T22:35:09.619Z,16.57
2018-03-04T22:37:35.839Z,16.57
2018-03-04T22:40:02.075Z,16.55
2018-03-04T22:42:28.274Z,16.55
2018-03-04T22:44:54.499Z,16.57
2018-03-04T22:47:20.709Z,16.56
2018-03-04T22:49:46.911Z,16.56
2018-03-04T22:52:13.127Z,16.55
2018-03-04T22:54:39.275Z,16.55
2018-03-04T22:57:05.546Z,16.56
2018-03-04T22:59:31.722Z,16.56
2018-03-04T23:01:57.954Z,16.55
2018-03-04T23:04:24.108Z,16.55
2018-03-04T23:06:50.310Z,16.56
2018-03-04T23:09:16.533Z,16.56
2018-03-04T23:11:42.736Z,16.56
2018-03-04T23:14:08.944Z,16.57
2018-03-04T23:16:35.101Z,16.58
2018-03-04T23:19:01.249Z,16.57
2018-03-04T23:21:27.559Z,16.59
2018-03-04T23:23:53.751Z,16.59
2018-03-04T23:26:19.923Z,16.58
2018-03-04T23:28:46.146Z,16.59
2018-03-04T23:31:12.289Z,16.59
2018-03-04T23:33:38.484Z,16.58
2018-03-04T23:36:04.664Z,16.58
2018-03-04T23:38:31.159Z,16.57
2018-03-04T23:40:57.409Z,16.58
2018-03-04T23:43:23.581Z,16.59
2018-03-04T23:45:49.736Z,16.59
2018-03-04T23:48:15.950Z,16.60
2018-03-04T23:50:42.120Z,16.58
2018-03-04T23:53:08.326Z,16.56
2018-03-04T23:55:34.856Z,16.56
2018-03-04T23:58:01.082Z,16.58
